sensor_id;sensor_type;location;lat;lon;timestamp;P1;durP1;ratioP1;P2;durP2;ratioP2
4375;SDS011;2202;50.866;12.750;2022-09-29T00:00:47;9.03;;;5.40;;
4375;SDS011;2202;50.866;12.750;2022-09-29T00:03:15;7.77;;;5.70;;
4375;SDS011;2202;50.866;12.750;2022-09-29T00:05:47;7.13;;;5.20;;
4375;SDS011;2202;50.866;12.750;2022-09-29T00:08:15;7.83;;;4.80;;
4375;SDS011;2202;50.866;12.750;2022-09-29T00:10:43;9.63;;;4.93;;
4375;SDS011;2202;50.866;12.750;2022-09-29T00:13:10;7.13;;;5.50;;
4375;SDS011;2202;50.866;12.750;2022-09-29T00:15:37;8.63;;;6.43;;
4375;SDS011;2202;50.866;12.750;2022-09-29T00:18:04;11.33;;;6.57;;
4375;SDS011;2202;50.866;12.750;2022-09-29T00:20:32;8.63;;;6.37;;
4375;SDS011;2202;50.866;12.750;2022-09-29T00:23:01;9.00;;;6.60;;
4375;SDS011;2202;50.866;12.750;2022-09-29T00:25:29;8.00;;;6.00;;
4375;SDS011;2202;50.866;12.750;2022-09-29T00:27:56;9.97;;;6.90;;
4375;SDS011;2202;50.866;12.750;2022-09-29T00:30:22;8.10;;;6.60;;
4375;SDS011;2202;50.866;12.750;2022-09-29T00:32:49;9.63;;;6.90;;
4375;SDS011;2202;50.866;12.750;2022-09-29T00:35:16;6.70;;;5.53;;
4375;SDS011;2202;50.866;12.750;2022-09-29T00:37:43;10.20;;;7.57;;
4375;SDS011;2202;50.866;12.750;2022-09-29T00:40:12;12.00;;;6.73;;
4375;SDS011;2202;50.866;12.750;2022-09-29T00:42:39;8.60;;;6.27;;
4375;SDS011;2202;50.866;12.750;2022-09-29T00:45:13;11.33;;;5.93;;
4375;SDS011;2202;50.866;12.750;2022-09-29T00:47:44;9.43;;;6.77;;
4375;SDS011;2202;50.866;12.750;2022-09-29T00:50:16;9.67;;;5.90;;
4375;SDS011;2202;50.866;12.750;2022-09-29T00:52:48;8.70;;;5.43;;
4375;SDS011;2202;50.866;12.750;2022-09-29T00:55:21;7.80;;;5.70;;
4375;SDS011;2202;50.866;12.750;2022-09-29T00:57:52;8.90;;;6.23;;
4375;SDS011;2202;50.866;12.750;2022-09-29T01:00:22;7.30;;;4.90;;
4375;SDS011;2202;50.866;12.750;2022-09-29T01:02:51;8.33;;;6.00;;
4375;SDS011;2202;50.866;12.750;2022-09-29T01:05:22;8.50;;;6.00;;
4375;SDS011;2202;50.866;12.750;2022-09-29T01:07:53;8.30;;;5.40;;
4375;SDS011;2202;50.866;12.750;2022-09-29T01:10:22;6.90;;;5.40;;
4375;SDS011;2202;50.866;12.750;2022-09-29T01:12:49;12.83;;;7.00;;
4375;SDS011;2202;50.866;12.750;2022-09-29T01:15:17;6.77;;;5.43;;
4375;SDS011;2202;50.866;12.750;2022-09-29T01:17:46;9.00;;;6.10;;
4375;SDS011;2202;50.866;12.750;2022-09-29T01:20:14;7.43;;;5.83;;
4375;SDS011;2202;50.866;12.750;2022-09-29T01:26:24;8.43;;;5.90;;
4375;SDS011;2202;50.866;12.750;2022-09-29T01:32:21;9.30;;;6.33;;
4375;SDS011;2202;50.866;12.750;2022-09-29T01:34:56;8.60;;;6.10;;
4375;SDS011;2202;50.866;12.750;2022-09-29T01:37:30;9.50;;;6.40;;
4375;SDS011;2202;50.866;12.750;2022-09-29T01:40:10;9.90;;;6.70;;
4375;SDS011;2202;50.866;12.750;2022-09-29T01:42:42;13.20;;;7.67;;
4375;SDS011;2202;50.866;12.750;2022-09-29T01:45:20;10.27;;;8.40;;
4375;SDS011;2202;50.866;12.750;2022-09-29T01:47:53;11.23;;;7.10;;
4375;SDS011;2202;50.866;12.750;2022-09-29T01:50:23;11.80;;;7.17;;
4375;SDS011;2202;50.866;12.750;2022-09-29T01:52:55;12.43;;;8.37;;
4375;SDS011;2202;50.866;12.750;2022-09-29T01:55:28;11.73;;;8.30;;
4375;SDS011;2202;50.866;12.750;2022-09-29T01:57:58;16.57;;;8.70;;
4375;SDS011;2202;50.866;12.750;2022-09-29T02:00:27;17.10;;;9.10;;
4375;SDS011;2202;50.866;12.750;2022-09-29T02:02:59;22.33;;;8.33;;
4375;SDS011;2202;50.866;12.750;2022-09-29T02:05:30;11.27;;;7.90;;
4375;SDS011;2202;50.866;12.750;2022-09-29T02:08:00;11.07;;;7.63;;
4375;SDS011;2202;50.866;12.750;2022-09-29T02:10:33;11.10;;;8.00;;
4375;SDS011;2202;50.866;12.750;2022-09-29T02:13:05;11.23;;;7.83;;
4375;SDS011;2202;50.866;12.750;2022-09-29T02:15:36;11.87;;;7.70;;
4375;SDS011;2202;50.866;12.750;2022-09-29T02:18:09;12.00;;;7.63;;
4375;SDS011;2202;50.866;12.750;2022-09-29T02:20:39;11.70;;;7.63;;
4375;SDS011;2202;50.866;12.750;2022-09-29T02:23:06;15.23;;;8.30;;
4375;SDS011;2202;50.866;12.750;2022-09-29T02:25:34;10.90;;;7.80;;
4375;SDS011;2202;50.866;12.750;2022-09-29T02:28:03;10.93;;;7.87;;
4375;SDS011;2202;50.866;12.750;2022-09-29T02:30:30;10.20;;;6.83;;
4375;SDS011;2202;50.866;12.750;2022-09-29T02:32:57;8.87;;;6.87;;
4375;SDS011;2202;50.866;12.750;2022-09-29T02:35:25;9.50;;;7.40;;
4375;SDS011;2202;50.866;12.750;2022-09-29T02:38:00;11.67;;;8.20;;
4375;SDS011;2202;50.866;12.750;2022-09-29T02:40:34;10.50;;;7.70;;
4375;SDS011;2202;50.866;12.750;2022-09-29T02:43:14;11.67;;;8.87;;
4375;SDS011;2202;50.866;12.750;2022-09-29T02:46:19;11.83;;;7.63;;
4375;SDS011;2202;50.866;12.750;2022-09-29T02:49:11;11.40;;;8.07;;
4375;SDS011;2202;50.866;12.750;2022-09-29T02:51:55;10.00;;;7.53;;
4375;SDS011;2202;50.866;12.750;2022-09-29T02:54:29;14.47;;;9.07;;
4375;SDS011;2202;50.866;12.750;2022-09-29T02:57:11;10.63;;;7.63;;
4375;SDS011;2202;50.866;12.750;2022-09-29T02:59:47;11.03;;;7.33;;
4375;SDS011;2202;50.866;12.750;2022-09-29T03:02:22;12.30;;;8.80;;
4375;SDS011;2202;50.866;12.750;2022-09-29T03:04:50;11.40;;;8.80;;
4375;SDS011;2202;50.866;12.750;2022-09-29T03:07:19;11.73;;;8.13;;
4375;SDS011;2202;50.866;12.750;2022-09-29T03:09:46;12.90;;;9.00;;
4375;SDS011;2202;50.866;12.750;2022-09-29T03:12:13;10.27;;;6.80;;
4375;SDS011;2202;50.866;12.750;2022-09-29T03:14:42;10.67;;;7.60;;
4375;SDS011;2202;50.866;12.750;2022-09-29T03:17:09;11.73;;;7.90;;
4375;SDS011;2202;50.866;12.750;2022-09-29T03:19:35;13.00;;;7.67;;
4375;SDS011;2202;50.866;12.750;2022-09-29T03:22:02;9.17;;;6.40;;
4375;SDS011;2202;50.866;12.750;2022-09-29T03:24:30;12.00;;;7.67;;
4375;SDS011;2202;50.866;12.750;2022-09-29T03:26:57;10.80;;;7.10;;
4375;SDS011;2202;50.866;12.750;2022-09-29T03:29:24;11.33;;;7.40;;
4375;SDS011;2202;50.866;12.750;2022-09-29T03:31:51;11.50;;;7.20;;
4375;SDS011;2202;50.866;12.750;2022-09-29T03:34:18;8.90;;;6.70;;
4375;SDS011;2202;50.866;12.750;2022-09-29T03:36:45;9.93;;;7.10;;
4375;SDS011;2202;50.866;12.750;2022-09-29T03:39:11;10.30;;;7.27;;
4375;SDS011;2202;50.866;12.750;2022-09-29T03:41:40;15.03;;;7.90;;
4375;SDS011;2202;50.866;12.750;2022-09-29T03:44:06;8.83;;;6.43;;
4375;SDS011;2202;50.866;12.750;2022-09-29T03:46:33;10.70;;;7.60;;
4375;SDS011;2202;50.866;12.750;2022-09-29T03:49:00;8.70;;;6.17;;
4375;SDS011;2202;50.866;12.750;2022-09-29T03:51:27;12.00;;;7.90;;
4375;SDS011;2202;50.866;12.750;2022-09-29T03:53:54;12.10;;;7.37;;
4375;SDS011;2202;50.866;12.750;2022-09-29T03:56:21;12.33;;;7.43;;
4375;SDS011;2202;50.866;12.750;2022-09-29T03:58:49;11.47;;;7.07;;
4375;SDS011;2202;50.866;12.750;2022-09-29T04:01:16;11.67;;;8.30;;
4375;SDS011;2202;50.866;12.750;2022-09-29T04:03:43;12.83;;;9.23;;
4375;SDS011;2202;50.866;12.750;2022-09-29T04:06:11;9.70;;;7.47;;
4375;SDS011;2202;50.866;12.750;2022-09-29T04:08:38;10.20;;;7.50;;
4375;SDS011;2202;50.866;12.750;2022-09-29T04:11:05;10.60;;;7.50;;
4375;SDS011;2202;50.866;12.750;2022-09-29T04:13:32;10.70;;;8.17;;
4375;SDS011;2202;50.866;12.750;2022-09-29T04:16:02;10.63;;;7.23;;
4375;SDS011;2202;50.866;12.750;2022-09-29T04:18:30;11.13;;;8.17;;
4375;SDS011;2202;50.866;12.750;2022-09-29T04:20:58;10.77;;;7.43;;
4375;SDS011;2202;50.866;12.750;2022-09-29T04:23:25;9.57;;;7.37;;
4375;SDS011;2202;50.866;12.750;2022-09-29T04:25:53;9.00;;;6.87;;
4375;SDS011;2202;50.866;12.750;2022-09-29T04:28:20;11.73;;;6.83;;
4375;SDS011;2202;50.866;12.750;2022-09-29T04:30:47;8.77;;;6.83;;
4375;SDS011;2202;50.866;12.750;2022-09-29T04:33:15;8.30;;;6.87;;
4375;SDS011;2202;50.866;12.750;2022-09-29T04:35:42;9.97;;;7.27;;
4375;SDS011;2202;50.866;12.750;2022-09-29T04:38:09;13.83;;;8.00;;
4375;SDS011;2202;50.866;12.750;2022-09-29T04:40:36;9.83;;;7.83;;
4375;SDS011;2202;50.866;12.750;2022-09-29T04:43:03;8.23;;;7.10;;
4375;SDS011;2202;50.866;12.750;2022-09-29T04:45:30;13.83;;;10.10;;
4375;SDS011;2202;50.866;12.750;2022-09-29T04:47:57;10.77;;;7.37;;
4375;SDS011;2202;50.866;12.750;2022-09-29T04:50:25;12.60;;;8.70;;
4375;SDS011;2202;50.866;12.750;2022-09-29T04:52:53;12.40;;;9.60;;
4375;SDS011;2202;50.866;12.750;2022-09-29T04:55:20;16.97;;;13.90;;
4375;SDS011;2202;50.866;12.750;2022-09-29T04:57:47;10.57;;;8.43;;
4375;SDS011;2202;50.866;12.750;2022-09-29T05:00:14;12.13;;;8.47;;
4375;SDS011;2202;50.866;12.750;2022-09-29T05:02:41;14.67;;;11.10;;
4375;SDS011;2202;50.866;12.750;2022-09-29T05:05:08;15.27;;;12.07;;
4375;SDS011;2202;50.866;12.750;2022-09-29T05:07:38;13.93;;;8.93;;
4375;SDS011;2202;50.866;12.750;2022-09-29T05:10:06;9.87;;;7.37;;
4375;SDS011;2202;50.866;12.750;2022-09-29T05:12:33;12.70;;;8.10;;
4375;SDS011;2202;50.866;12.750;2022-09-29T05:15:00;13.40;;;9.87;;
4375;SDS011;2202;50.866;12.750;2022-09-29T05:17:28;11.10;;;8.73;;
4375;SDS011;2202;50.866;12.750;2022-09-29T05:19:55;11.20;;;7.50;;
4375;SDS011;2202;50.866;12.750;2022-09-29T05:22:22;10.63;;;7.93;;
4375;SDS011;2202;50.866;12.750;2022-09-29T05:24:51;10.50;;;8.10;;
4375;SDS011;2202;50.866;12.750;2022-09-29T05:27:18;9.07;;;7.30;;
4375;SDS011;2202;50.866;12.750;2022-09-29T05:29:46;11.00;;;6.93;;
4375;SDS011;2202;50.866;12.750;2022-09-29T05:32:14;9.10;;;6.50;;
4375;SDS011;2202;50.866;12.750;2022-09-29T05:34:41;8.70;;;6.53;;
4375;SDS011;2202;50.866;12.750;2022-09-29T05:37:09;9.10;;;6.47;;
4375;SDS011;2202;50.866;12.750;2022-09-29T05:39:37;9.20;;;6.50;;
4375;SDS011;2202;50.866;12.750;2022-09-29T05:42:06;11.00;;;6.70;;
4375;SDS011;2202;50.866;12.750;2022-09-29T05:44:36;9.90;;;6.90;;
4375;SDS011;2202;50.866;12.750;2022-09-29T05:47:03;7.30;;;6.17;;
4375;SDS011;2202;50.866;12.750;2022-09-29T05:49:30;8.90;;;6.90;;
4375;SDS011;2202;50.866;12.750;2022-09-29T05:51:57;9.00;;;6.97;;
4375;SDS011;2202;50.866;12.750;2022-09-29T05:54:25;9.03;;;7.27;;
4375;SDS011;2202;50.866;12.750;2022-09-29T05:56:52;15.77;;;11.43;;
4375;SDS011;2202;50.866;12.750;2022-09-29T05:59:21;11.80;;;9.93;;
4375;SDS011;2202;50.866;12.750;2022-09-29T06:01:48;13.10;;;10.07;;
4375;SDS011;2202;50.866;12.750;2022-09-29T06:04:15;11.03;;;7.00;;
4375;SDS011;2202;50.866;12.750;2022-09-29T06:06:42;8.63;;;7.73;;
4375;SDS011;2202;50.866;12.750;2022-09-29T06:09:09;10.20;;;7.00;;
4375;SDS011;2202;50.866;12.750;2022-09-29T06:11:36;9.57;;;7.00;;
4375;SDS011;2202;50.866;12.750;2022-09-29T06:14:03;9.43;;;7.20;;
4375;SDS011;2202;50.866;12.750;2022-09-29T06:16:31;10.33;;;8.70;;
4375;SDS011;2202;50.866;12.750;2022-09-29T06:18:59;12.10;;;10.13;;
4375;SDS011;2202;50.866;12.750;2022-09-29T06:21:27;11.63;;;7.73;;
4375;SDS011;2202;50.866;12.750;2022-09-29T06:23:55;10.90;;;8.20;;
4375;SDS011;2202;50.866;12.750;2022-09-29T06:26:23;8.23;;;6.93;;
4375;SDS011;2202;50.866;12.750;2022-09-29T06:28:51;8.93;;;7.30;;
4375;SDS011;2202;50.866;12.750;2022-09-29T06:31:19;9.83;;;6.77;;
4375;SDS011;2202;50.866;12.750;2022-09-29T06:33:48;8.70;;;7.20;;
4375;SDS011;2202;50.866;12.750;2022-09-29T06:36:15;8.67;;;7.00;;
4375;SDS011;2202;50.866;12.750;2022-09-29T06:39:03;9.73;;;6.70;;
4375;SDS011;2202;50.866;12.750;2022-09-29T06:41:31;9.20;;;7.37;;
4375;SDS011;2202;50.866;12.750;2022-09-29T06:43:59;10.63;;;8.43;;
4375;SDS011;2202;50.866;12.750;2022-09-29T06:46:26;11.43;;;6.97;;
4375;SDS011;2202;50.866;12.750;2022-09-29T06:48:55;9.00;;;7.20;;
4375;SDS011;2202;50.866;12.750;2022-09-29T06:51:22;8.17;;;6.40;;
4375;SDS011;2202;50.866;12.750;2022-09-29T06:53:50;8.83;;;6.83;;
4375;SDS011;2202;50.866;12.750;2022-09-29T06:56:17;10.13;;;7.73;;
4375;SDS011;2202;50.866;12.750;2022-09-29T06:58:44;10.63;;;6.70;;
4375;SDS011;2202;50.866;12.750;2022-09-29T07:01:11;8.07;;;6.10;;
4375;SDS011;2202;50.866;12.750;2022-09-29T07:03:38;8.83;;;7.03;;
4375;SDS011;2202;50.866;12.750;2022-09-29T07:06:07;9.30;;;5.83;;
4375;SDS011;2202;50.866;12.750;2022-09-29T07:08:35;8.23;;;6.23;;
4375;SDS011;2202;50.866;12.750;2022-09-29T07:11:04;7.30;;;6.30;;
4375;SDS011;2202;50.866;12.750;2022-09-29T07:13:32;9.00;;;7.00;;
4375;SDS011;2202;50.866;12.750;2022-09-29T07:16:02;11.40;;;5.80;;
4375;SDS011;2202;50.866;12.750;2022-09-29T07:18:31;11.90;;;6.27;;
4375;SDS011;2202;50.866;12.750;2022-09-29T07:21:00;8.87;;;5.87;;
4375;SDS011;2202;50.866;12.750;2022-09-29T07:23:28;11.57;;;6.43;;
4375;SDS011;2202;50.866;12.750;2022-09-29T07:25:55;8.00;;;5.90;;
4375;SDS011;2202;50.866;12.750;2022-09-29T07:28:22;9.37;;;5.70;;
4375;SDS011;2202;50.866;12.750;2022-09-29T07:30:57;8.40;;;4.70;;
4375;SDS011;2202;50.866;12.750;2022-09-29T07:33:24;7.70;;;5.60;;
4375;SDS011;2202;50.866;12.750;2022-09-29T07:35:51;6.83;;;5.37;;
4375;SDS011;2202;50.866;12.750;2022-09-29T07:38:18;7.30;;;5.30;;
4375;SDS011;2202;50.866;12.750;2022-09-29T07:40:46;6.77;;;4.53;;
4375;SDS011;2202;50.866;12.750;2022-09-29T07:43:13;6.93;;;5.10;;
4375;SDS011;2202;50.866;12.750;2022-09-29T07:45:44;8.27;;;5.63;;
4375;SDS011;2202;50.866;12.750;2022-09-29T07:48:12;8.37;;;5.70;;
4375;SDS011;2202;50.866;12.750;2022-09-29T07:50:39;6.83;;;4.50;;
4375;SDS011;2202;50.866;12.750;2022-09-29T07:53:06;7.53;;;5.03;;
4375;SDS011;2202;50.866;12.750;2022-09-29T07:55:33;5.50;;;4.43;;
4375;SDS011;2202;50.866;12.750;2022-09-29T07:58:01;5.87;;;4.63;;
4375;SDS011;2202;50.866;12.750;2022-09-29T08:00:29;6.10;;;4.67;;
4375;SDS011;2202;50.866;12.750;2022-09-29T08:02:58;7.43;;;5.17;;
4375;SDS011;2202;50.866;12.750;2022-09-29T08:05:26;7.07;;;4.63;;
4375;SDS011;2202;50.866;12.750;2022-09-29T08:07:53;5.57;;;3.43;;
4375;SDS011;2202;50.866;12.750;2022-09-29T08:10:21;8.93;;;4.57;;
4375;SDS011;2202;50.866;12.750;2022-09-29T08:12:48;6.83;;;4.13;;
4375;SDS011;2202;50.866;12.750;2022-09-29T08:15:16;6.00;;;4.07;;
4375;SDS011;2202;50.866;12.750;2022-09-29T08:17:43;10.37;;;3.87;;
4375;SDS011;2202;50.866;12.750;2022-09-29T08:20:10;6.73;;;4.47;;
4375;SDS011;2202;50.866;12.750;2022-09-29T08:22:37;6.13;;;3.90;;
4375;SDS011;2202;50.866;12.750;2022-09-29T08:25:04;8.13;;;4.03;;
4375;SDS011;2202;50.866;12.750;2022-09-29T08:27:31;7.47;;;3.90;;
4375;SDS011;2202;50.866;12.750;2022-09-29T08:29:58;8.93;;;5.33;;
4375;SDS011;2202;50.866;12.750;2022-09-29T08:32:27;6.50;;;4.10;;
4375;SDS011;2202;50.866;12.750;2022-09-29T08:34:53;7.30;;;4.13;;
4375;SDS011;2202;50.866;12.750;2022-09-29T08:37:20;9.60;;;4.07;;
4375;SDS011;2202;50.866;12.750;2022-09-29T08:39:47;8.50;;;5.30;;
4375;SDS011;2202;50.866;12.750;2022-09-29T08:42:15;11.80;;;4.30;;
4375;SDS011;2202;50.866;12.750;2022-09-29T08:44:47;11.50;;;4.23;;
4375;SDS011;2202;50.866;12.750;2022-09-29T08:47:20;9.27;;;4.17;;
4375;SDS011;2202;50.866;12.750;2022-09-29T08:49:54;15.63;;;4.03;;
4375;SDS011;2202;50.866;12.750;2022-09-29T08:52:24;10.20;;;4.10;;
4375;SDS011;2202;50.866;12.750;2022-09-29T08:54:55;9.70;;;3.80;;
4375;SDS011;2202;50.866;12.750;2022-09-29T08:57:30;9.17;;;3.60;;
4375;SDS011;2202;50.866;12.750;2022-09-29T08:59:58;8.83;;;4.20;;
4375;SDS011;2202;50.866;12.750;2022-09-29T09:02:33;15.03;;;4.50;;
4375;SDS011;2202;50.866;12.750;2022-09-29T09:05:25;9.40;;;4.30;;
4375;SDS011;2202;50.866;12.750;2022-09-29T09:08:03;12.40;;;4.17;;
4375;SDS011;2202;50.866;12.750;2022-09-29T09:10:38;10.30;;;4.40;;
4375;SDS011;2202;50.866;12.750;2022-09-29T09:13:17;11.57;;;4.40;;
4375;SDS011;2202;50.866;12.750;2022-09-29T09:15:58;10.03;;;5.00;;
4375;SDS011;2202;50.866;12.750;2022-09-29T09:18:45;9.90;;;5.27;;
4375;SDS011;2202;50.866;12.750;2022-09-29T09:21:32;9.80;;;4.17;;
4375;SDS011;2202;50.866;12.750;2022-09-29T09:24:07;9.23;;;4.40;;
4375;SDS011;2202;50.866;12.750;2022-09-29T09:26:42;9.60;;;4.50;;
4375;SDS011;2202;50.866;12.750;2022-09-29T09:29:10;12.90;;;4.30;;
4375;SDS011;2202;50.866;12.750;2022-09-29T09:31:43;10.33;;;4.40;;
4375;SDS011;2202;50.866;12.750;2022-09-29T09:34:18;8.80;;;4.43;;
4375;SDS011;2202;50.866;12.750;2022-09-29T09:36:49;9.17;;;4.10;;
4375;SDS011;2202;50.866;12.750;2022-09-29T09:39:19;7.40;;;4.10;;
4375;SDS011;2202;50.866;12.750;2022-09-29T09:41:52;8.07;;;4.50;;
4375;SDS011;2202;50.866;12.750;2022-09-29T09:44:23;8.77;;;4.30;;
4375;SDS011;2202;50.866;12.750;2022-09-29T09:46:52;9.00;;;4.47;;
4375;SDS011;2202;50.866;12.750;2022-09-29T09:49:22;6.90;;;3.80;;
4375;SDS011;2202;50.866;12.750;2022-09-29T09:51:55;4.50;;;2.87;;
4375;SDS011;2202;50.866;12.750;2022-09-29T09:54:28;4.53;;;3.00;;
4375;SDS011;2202;50.866;12.750;2022-09-29T09:57:05;4.77;;;3.27;;
4375;SDS011;2202;50.866;12.750;2022-09-29T10:00:07;11.93;;;4.07;;
4375;SDS011;2202;50.866;12.750;2022-09-29T10:02:40;6.23;;;3.30;;
4375;SDS011;2202;50.866;12.750;2022-09-29T10:05:10;6.43;;;3.03;;
4375;SDS011;2202;50.866;12.750;2022-09-29T10:07:39;4.57;;;3.70;;
4375;SDS011;2202;50.866;12.750;2022-09-29T10:10:13;5.80;;;3.57;;
4375;SDS011;2202;50.866;12.750;2022-09-29T10:12:42;6.77;;;3.30;;
4375;SDS011;2202;50.866;12.750;2022-09-29T10:15:20;4.60;;;3.97;;
4375;SDS011;2202;50.866;12.750;2022-09-29T10:17:55;5.70;;;4.43;;
4375;SDS011;2202;50.866;12.750;2022-09-29T10:20:33;7.83;;;4.13;;
4375;SDS011;2202;50.866;12.750;2022-09-29T10:25:53;7.93;;;4.57;;
4375;SDS011;2202;50.866;12.750;2022-09-29T10:28:24;7.37;;;4.13;;
4375;SDS011;2202;50.866;12.750;2022-09-29T10:30:54;4.97;;;4.00;;
4375;SDS011;2202;50.866;12.750;2022-09-29T10:33:21;7.30;;;4.63;;
4375;SDS011;2202;50.866;12.750;2022-09-29T10:36:02;3.80;;;3.50;;
4375;SDS011;2202;50.866;12.750;2022-09-29T10:38:34;4.97;;;4.47;;
4375;SDS011;2202;50.866;12.750;2022-09-29T10:41:03;6.80;;;3.90;;
4375;SDS011;2202;50.866;12.750;2022-09-29T10:43:34;5.07;;;4.57;;
4375;SDS011;2202;50.866;12.750;2022-09-29T10:46:03;6.00;;;4.30;;
4375;SDS011;2202;50.866;12.750;2022-09-29T10:48:30;5.73;;;3.67;;
4375;SDS011;2202;50.866;12.750;2022-09-29T10:50:57;3.53;;;3.13;;
4375;SDS011;2202;50.866;12.750;2022-09-29T10:53:32;5.50;;;3.40;;
4375;SDS011;2202;50.866;12.750;2022-09-29T10:56:05;5.43;;;3.80;;
4375;SDS011;2202;50.866;12.750;2022-09-29T10:58:40;5.17;;;4.43;;
4375;SDS011;2202;50.866;12.750;2022-09-29T11:01:10;10.20;;;4.50;;
4375;SDS011;2202;50.866;12.750;2022-09-29T11:03:39;3.73;;;3.27;;
4375;SDS011;2202;50.866;12.750;2022-09-29T11:06:13;6.80;;;4.20;;
4375;SDS011;2202;50.866;12.750;2022-09-29T11:11:19;6.80;;;3.70;;
4375;SDS011;2202;50.866;12.750;2022-09-29T11:13:49;5.47;;;3.20;;
4375;SDS011;2202;50.866;12.750;2022-09-29T11:16:18;4.93;;;3.23;;
4375;SDS011;2202;50.866;12.750;2022-09-29T11:18:50;3.57;;;3.27;;
4375;SDS011;2202;50.866;12.750;2022-09-29T11:24:22;4.93;;;4.00;;
4375;SDS011;2202;50.866;12.750;2022-09-29T11:27:11;4.10;;;3.50;;
4375;SDS011;2202;50.866;12.750;2022-09-29T11:29:46;4.80;;;3.80;;
4375;SDS011;2202;50.866;12.750;2022-09-29T11:32:25;4.30;;;3.63;;
4375;SDS011;2202;50.866;12.750;2022-09-29T11:35:11;4.40;;;3.93;;
4375;SDS011;2202;50.866;12.750;2022-09-29T11:40:50;4.23;;;3.40;;
4375;SDS011;2202;50.866;12.750;2022-09-29T11:43:32;4.00;;;3.60;;
4375;SDS011;2202;50.866;12.750;2022-09-29T11:46:10;6.10;;;3.50;;
4375;SDS011;2202;50.866;12.750;2022-09-29T11:48:58;4.20;;;3.00;;
4375;SDS011;2202;50.866;12.750;2022-09-29T11:51:41;6.00;;;3.23;;
4375;SDS011;2202;50.866;12.750;2022-09-29T11:54:28;6.13;;;3.70;;
4375;SDS011;2202;50.866;12.750;2022-09-29T11:57:08;3.53;;;3.23;;
4375;SDS011;2202;50.866;12.750;2022-09-29T11:59:45;3.93;;;3.47;;
4375;SDS011;2202;50.866;12.750;2022-09-29T12:02:34;4.37;;;3.97;;
4375;SDS011;2202;50.866;12.750;2022-09-29T12:05:20;5.40;;;3.67;;
4375;SDS011;2202;50.866;12.750;2022-09-29T12:07:53;3.90;;;3.60;;
4375;SDS011;2202;50.866;12.750;2022-09-29T12:10:31;4.20;;;3.23;;
4375;SDS011;2202;50.866;12.750;2022-09-29T12:13:09;4.60;;;3.30;;
4375;SDS011;2202;50.866;12.750;2022-09-29T12:15:49;7.30;;;3.13;;
4375;SDS011;2202;50.866;12.750;2022-09-29T12:18:20;8.60;;;3.57;;
4375;SDS011;2202;50.866;12.750;2022-09-29T12:20:51;7.07;;;3.17;;
4375;SDS011;2202;50.866;12.750;2022-09-29T12:23:20;5.10;;;3.93;;
4375;SDS011;2202;50.866;12.750;2022-09-29T12:25:57;5.80;;;3.87;;
4375;SDS011;2202;50.866;12.750;2022-09-29T12:28:30;4.23;;;3.80;;
4375;SDS011;2202;50.866;12.750;2022-09-29T12:31:05;3.40;;;3.10;;
4375;SDS011;2202;50.866;12.750;2022-09-29T12:33:36;5.70;;;3.67;;
4375;SDS011;2202;50.866;12.750;2022-09-29T12:36:09;5.13;;;4.40;;
4375;SDS011;2202;50.866;12.750;2022-09-29T12:39:09;5.90;;;4.57;;
4375;SDS011;2202;50.866;12.750;2022-09-29T12:41:54;4.43;;;3.73;;
4375;SDS011;2202;50.866;12.750;2022-09-29T12:44:30;4.30;;;4.00;;
4375;SDS011;2202;50.866;12.750;2022-09-29T12:47:06;5.10;;;4.43;;
4375;SDS011;2202;50.866;12.750;2022-09-29T12:49:39;5.60;;;4.00;;
4375;SDS011;2202;50.866;12.750;2022-09-29T12:52:16;3.10;;;2.80;;
4375;SDS011;2202;50.866;12.750;2022-09-29T12:54:52;5.17;;;3.10;;
4375;SDS011;2202;50.866;12.750;2022-09-29T12:57:23;4.87;;;4.20;;
4375;SDS011;2202;50.866;12.750;2022-09-29T12:59:54;3.97;;;3.13;;
4375;SDS011;2202;50.866;12.750;2022-09-29T13:02:30;6.33;;;3.30;;
4375;SDS011;2202;50.866;12.750;2022-09-29T13:05:15;4.00;;;3.03;;
4375;SDS011;2202;50.866;12.750;2022-09-29T13:08:00;3.57;;;2.73;;
4375;SDS011;2202;50.866;12.750;2022-09-29T13:10:44;3.00;;;2.57;;
4375;SDS011;2202;50.866;12.750;2022-09-29T13:13:39;5.53;;;2.60;;
4375;SDS011;2202;50.866;12.750;2022-09-29T13:22:48;7.47;;;3.40;;
4375;SDS011;2202;50.866;12.750;2022-09-29T13:25:36;2.73;;;2.30;;
4375;SDS011;2202;50.866;12.750;2022-09-29T13:28:20;4.87;;;3.30;;
4375;SDS011;2202;50.866;12.750;2022-09-29T13:30:51;4.13;;;3.50;;
4375;SDS011;2202;50.866;12.750;2022-09-29T13:33:21;3.70;;;3.37;;
4375;SDS011;2202;50.866;12.750;2022-09-29T13:35:51;4.90;;;3.60;;
4375;SDS011;2202;50.866;12.750;2022-09-29T13:38:19;3.63;;;3.30;;
4375;SDS011;2202;50.866;12.750;2022-09-29T13:43:38;7.60;;;4.83;;
4375;SDS011;2202;50.866;12.750;2022-09-29T13:46:26;8.43;;;5.90;;
4375;SDS011;2202;50.866;12.750;2022-09-29T13:49:01;8.87;;;5.73;;
4375;SDS011;2202;50.866;12.750;2022-09-29T13:54:27;6.63;;;5.10;;
4375;SDS011;2202;50.866;12.750;2022-09-29T14:05:51;11.83;;;5.63;;
4375;SDS011;2202;50.866;12.750;2022-09-29T14:08:39;12.57;;;6.27;;
4375;SDS011;2202;50.866;12.750;2022-09-29T14:11:20;11.93;;;5.63;;
4375;SDS011;2202;50.866;12.750;2022-09-29T14:13:55;12.93;;;6.10;;
4375;SDS011;2202;50.866;12.750;2022-09-29T14:19:30;12.67;;;6.20;;
4375;SDS011;2202;50.866;12.750;2022-09-29T14:25:23;18.20;;;9.30;;
4375;SDS011;2202;50.866;12.750;2022-09-29T14:28:08;14.50;;;7.37;;
4375;SDS011;2202;50.866;12.750;2022-09-29T14:30:41;12.40;;;4.90;;
4375;SDS011;2202;50.866;12.750;2022-09-29T14:33:15;8.07;;;5.00;;
4375;SDS011;2202;50.866;12.750;2022-09-29T14:35:46;5.70;;;4.60;;
4375;SDS011;2202;50.866;12.750;2022-09-29T14:38:20;8.33;;;6.10;;
4375;SDS011;2202;50.866;12.750;2022-09-29T14:40:55;8.20;;;4.60;;
4375;SDS011;2202;50.866;12.750;2022-09-29T14:43:24;6.80;;;4.80;;
4375;SDS011;2202;50.866;12.750;2022-09-29T14:46:08;6.40;;;4.73;;
4375;SDS011;2202;50.866;12.750;2022-09-29T14:52:42;8.43;;;4.60;;
4375;SDS011;2202;50.866;12.750;2022-09-29T14:55:20;12.63;;;5.70;;
4375;SDS011;2202;50.866;12.750;2022-09-29T14:58:01;11.43;;;4.67;;
4375;SDS011;2202;50.866;12.750;2022-09-29T15:00:45;11.10;;;4.93;;
4375;SDS011;2202;50.866;12.750;2022-09-29T15:03:24;10.23;;;3.90;;
4375;SDS011;2202;50.866;12.750;2022-09-29T15:06:09;9.07;;;4.37;;
4375;SDS011;2202;50.866;12.750;2022-09-29T15:08:39;11.53;;;4.83;;
4375;SDS011;2202;50.866;12.750;2022-09-29T15:14:15;11.00;;;5.07;;
4375;SDS011;2202;50.866;12.750;2022-09-29T15:16:48;10.33;;;4.97;;
4375;SDS011;2202;50.866;12.750;2022-09-29T15:19:28;10.97;;;5.00;;
4375;SDS011;2202;50.866;12.750;2022-09-29T15:22:19;11.03;;;5.30;;
4375;SDS011;2202;50.866;12.750;2022-09-29T15:25:20;10.10;;;4.77;;
4375;SDS011;2202;50.866;12.750;2022-09-29T15:27:54;10.67;;;4.83;;
4375;SDS011;2202;50.866;12.750;2022-09-29T15:30:26;13.53;;;5.60;;
4375;SDS011;2202;50.866;12.750;2022-09-29T15:33:02;11.83;;;5.73;;
4375;SDS011;2202;50.866;12.750;2022-09-29T15:35:38;10.50;;;5.20;;
4375;SDS011;2202;50.866;12.750;2022-09-29T15:38:17;11.13;;;5.00;;
4375;SDS011;2202;50.866;12.750;2022-09-29T15:40:57;10.03;;;5.03;;
4375;SDS011;2202;50.866;12.750;2022-09-29T15:43:28;9.93;;;4.67;;
4375;SDS011;2202;50.866;12.750;2022-09-29T15:46:00;9.23;;;4.40;;
4375;SDS011;2202;50.866;12.750;2022-09-29T15:48:29;10.50;;;5.53;;
4375;SDS011;2202;50.866;12.750;2022-09-29T15:50:56;14.43;;;5.57;;
4375;SDS011;2202;50.866;12.750;2022-09-29T15:53:23;9.67;;;4.10;;
4375;SDS011;2202;50.866;12.750;2022-09-29T15:55:51;10.87;;;4.80;;
4375;SDS011;2202;50.866;12.750;2022-09-29T15:58:34;9.23;;;4.13;;
4375;SDS011;2202;50.866;12.750;2022-09-29T16:01:09;9.00;;;4.07;;
4375;SDS011;2202;50.866;12.750;2022-09-29T16:03:38;12.10;;;4.47;;
4375;SDS011;2202;50.866;12.750;2022-09-29T16:06:15;9.27;;;4.20;;
4375;SDS011;2202;50.866;12.750;2022-09-29T16:08:47;10.73;;;4.63;;
4375;SDS011;2202;50.866;12.750;2022-09-29T16:11:20;10.90;;;6.30;;
4375;SDS011;2202;50.866;12.750;2022-09-29T16:13:51;13.23;;;6.00;;
4375;SDS011;2202;50.866;12.750;2022-09-29T16:16:34;11.87;;;6.40;;